createdAt,value
2018-05-11T00:00:59.207Z,24.43
2018-05-11T00:03:27.355Z,24.27
2018-05-11T00:05:55.458Z,23.87
2018-05-11T00:08:24.354Z,24.67
2018-05-11T00:10:53.255Z,25.97
2018-05-11T00:13:22.152Z,22.47
2018-05-11T00:15:50.315Z,22.77
2018-05-11T00:18:19.222Z,24.70
2018-05-11T00:21:01.719Z,22.17
2018-05-11T00:23:30.735Z,21.53
2018-05-11T00:25:58.733Z,22.10
2018-05-11T00:28:26.822Z,25.73
2018-05-11T00:30:54.927Z,26.53
2018-05-11T00:33:23.777Z,23.10
2018-05-11T00:35:51.872Z,21.90
2018-05-11T00:38:20.737Z,24.03
2018-05-11T00:40:53.136Z,25.97
2018-05-11T00:43:21.230Z,27.23
2018-05-11T00:45:49.314Z,29.17
2018-05-11T00:48:17.403Z,27.70
2018-05-11T00:50:53.223Z,26.13
2018-05-11T00:53:21.318Z,32.60
2018-05-11T00:55:50.837Z,31.03
2018-05-11T00:58:18.940Z,31.87
2018-05-11T01:01:01.249Z,33.37
2018-05-11T01:03:30.276Z,32.27
2018-05-11T01:05:58.383Z,34.43
2018-05-11T01:08:26.478Z,28.23
2018-05-11T01:10:54.599Z,34.90
2018-05-11T01:13:22.783Z,30.93
2018-05-11T01:15:50.934Z,35.93
2018-05-11T01:18:19.087Z,33.67
2018-05-11T01:20:53.351Z,35.47
2018-05-11T01:23:22.248Z,29.80
2018-05-11T01:25:50.387Z,36.10
2018-05-11T01:28:18.539Z,39.00
2018-05-11T01:31:01.560Z,40.27
2018-05-11T01:33:30.556Z,33.83
2018-05-11T01:35:59.468Z,35.80
2018-05-11T01:38:27.591Z,35.80
2018-05-11T01:40:55.787Z,33.97
2018-05-11T01:43:24.708Z,33.40
2018-05-11T01:45:52.864Z,35.20
2018-05-11T01:48:21.033Z,38.50
2018-05-11T01:50:59.350Z,35.53
2018-05-11T01:53:27.480Z,33.53
2018-05-11T01:55:55.674Z,39.30
2018-05-11T01:58:23.833Z,35.70
2018-05-11T02:00:52.039Z,36.07
2018-05-11T02:03:20.955Z,33.83
2018-05-11T02:05:49.113Z,38.33
2018-05-11T02:08:17.988Z,34.90
2018-05-11T02:10:46.162Z,44.30
2018-05-11T02:13:15.085Z,48.17
2018-05-11T02:15:43.231Z,39.40
2018-05-11T02:18:11.384Z,34.63
2018-05-11T02:20:39.479Z,43.17
2018-05-11T02:23:07.603Z,38.53
2018-05-11T02:25:35.718Z,38.67
2018-05-11T02:28:04.617Z,34.30
2018-05-11T02:30:37.135Z,42.00
